sensor_id;sensor_type;location;lat;lon;timestamp;temperature;humidity
8424;DHT22;4249;49.072;9.770;2022-07-23T00:01:08;24.50;1.00
8424;DHT22;4249;49.072;9.770;2022-07-23T00:03:55;24.50;1.00
8424;DHT22;4249;49.072;9.770;2022-07-23T00:06:43;24.40;1.00
8424;DHT22;4249;49.072;9.770;2022-07-23T00:09:30;24.40;1.00
8424;DHT22;4249;49.072;9.770;2022-07-23T00:12:17;24.40;1.00
8424;DHT22;4249;49.072;9.770;2022-07-23T00:15:08;24.40;1.00
8424;DHT22;4249;49.072;9.770;2022-07-23T00:17:55;24.40;1.00
8424;DHT22;4249;49.072;9.770;2022-07-23T00:20:43;24.40;1.00
8424;DHT22;4249;49.072;9.770;2022-07-23T00:23:31;24.40;1.00
8424;DHT22;4249;49.072;9.770;2022-07-23T00:26:18;24.40;1.00
8424;DHT22;4249;49.072;9.770;2022-07-23T00:29:05;24.40;1.00
8424;DHT22;4249;49.072;9.770;2022-07-23T00:31:54;24.40;1.00
8424;DHT22;4249;49.072;9.770;2022-07-23T00:34:41;24.30;1.00
8424;DHT22;4249;49.072;9.770;2022-07-23T00:37:28;24.30;1.00
8424;DHT22;4249;49.072;9.770;2022-07-23T00:40:15;24.40;1.00
8424;DHT22;4249;49.072;9.770;2022-07-23T00:43:03;24.30;1.00
8424;DHT22;4249;49.072;9.770;2022-07-23T00:45:51;24.40;1.00
8424;DHT22;4249;49.072;9.770;2022-07-23T00:48:39;24.40;1.00
8424;DHT22;4249;49.072;9.770;2022-07-23T00:51:26;24.30;1.00
8424;DHT22;4249;49.072;9.770;2022-07-23T00:54:14;24.20;1.00
8424;DHT22;4249;49.072;9.770;2022-07-23T00:57:01;24.20;1.00
8424;DHT22;4249;49.072;9.770;2022-07-23T00:59:48;24.20;1.00
8424;DHT22;4249;49.072;9.770;2022-07-23T01:02:35;24.20;1.00
8424;DHT22;4249;49.072;9.770;2022-07-23T01:05:24;24.20;1.00
8424;DHT22;4249;49.072;9.770;2022-07-23T01:08:12;24.10;1.00
8424;DHT22;4249;49.072;9.770;2022-07-23T01:10:59;24.10;1.00
8424;DHT22;4249;49.072;9.770;2022-07-23T01:13:47;24.10;1.00
8424;DHT22;4249;49.072;9.770;2022-07-23T01:16:35;24.20;1.00
8424;DHT22;4249;49.072;9.770;2022-07-23T01:19:22;24.20;1.00
8424;DHT22;4249;49.072;9.770;2022-07-23T01:22:10;24.10;1.00
8424;DHT22;4249;49.072;9.770;2022-07-23T01:25:00;24.10;1.00
8424;DHT22;4249;49.072;9.770;2022-07-23T01:27:47;24.20;1.00
8424;DHT22;4249;49.072;9.770;2022-07-23T01:30:35;24.20;1.00
8424;DHT22;4249;49.072;9.770;2022-07-23T01:33:22;24.10;1.00
8424;DHT22;4249;49.072;9.770;2022-07-23T01:36:09;24.10;1.00
8424;DHT22;4249;49.072;9.770;2022-07-23T01:38:56;24.00;1.00
8424;DHT22;4249;49.072;9.770;2022-07-23T01:41:45;24.00;1.00
8424;DHT22;4249;49.072;9.770;2022-07-23T01:44:32;23.90;1.00
8424;DHT22;4249;49.072;9.770;2022-07-23T01:47:19;23.90;1.00
8424;DHT22;4249;49.072;9.770;2022-07-23T01:50:07;23.90;1.00
8424;DHT22;4249;49.072;9.770;2022-07-23T01:52:55;23.90;1.00
8424;DHT22;4249;49.072;9.770;2022-07-23T01:55:42;23.80;1.00
8424;DHT22;4249;49.072;9.770;2022-07-23T01:58:31;23.70;1.00
8424;DHT22;4249;49.072;9.770;2022-07-23T02:01:18;23.80;1.00
8424;DHT22;4249;49.072;9.770;2022-07-23T02:04:06;23.70;1.00
8424;DHT22;4249;49.072;9.770;2022-07-23T02:06:53;23.70;1.00
8424;DHT22;4249;49.072;9.770;2022-07-23T02:09:40;23.60;1.00
8424;DHT22;4249;49.072;9.770;2022-07-23T02:12:27;23.50;1.00
8424;DHT22;4249;49.072;9.770;2022-07-23T02:15:16;23.60;1.00
8424;DHT22;4249;49.072;9.770;2022-07-23T02:18:03;23.60;1.00
8424;DHT22;4249;49.072;9.770;2022-07-23T02:20:51;23.50;1.00
8424;DHT22;4249;49.072;9.770;2022-07-23T02:23:38;23.50;1.00
8424;DHT22;4249;49.072;9.770;2022-07-23T02:26:26;23.40;1.00
8424;DHT22;4249;49.072;9.770;2022-07-23T02:29:13;23.40;1.00
8424;DHT22;4249;49.072;9.770;2022-07-23T02:32:02;23.30;1.00
8424;DHT22;4249;49.072;9.770;2022-07-23T02:34:50;23.30;1.00
8424;DHT22;4249;49.072;9.770;2022-07-23T02:37:37;23.20;1.00
8424;DHT22;4249;49.072;9.770;2022-07-23T02:40:24;23.20;1.00
8424;DHT22;4249;49.072;9.770;2022-07-23T02:43:11;23.30;1.00
8424;DHT22;4249;49.072;9.770;2022-07-23T02:45:58;23.20;1.00
8424;DHT22;4249;49.072;9.770;2022-07-23T02:48:48;23.20;1.00
8424;DHT22;4249;49.072;9.770;2022-07-23T02:51:35;23.00;1.00
8424;DHT22;4249;49.072;9.770;2022-07-23T02:54:22;23.10;1.00
8424;DHT22;4249;49.072;9.770;2022-07-23T02:57:09;23.00;1.00
8424;DHT22;4249;49.072;9.770;2022-07-23T02:59:56;22.90;1.00
8424;DHT22;4249;49.072;9.770;2022-07-23T03:02:44;22.90;1.00
8424;DHT22;4249;49.072;9.770;2022-07-23T03:05:38;22.90;1.00
8424;DHT22;4249;49.072;9.770;2022-07-23T03:08:26;22.80;1.00
8424;DHT22;4249;49.072;9.770;2022-07-23T03:11:13;22.60;1.00
8424;DHT22;4249;49.072;9.770;2022-07-23T03:14:00;22.60;1.00
8424;DHT22;4249;49.072;9.770;2022-07-23T03:16:47;22.50;1.00
8424;DHT22;4249;49.072;9.770;2022-07-23T03:19:35;22.50;1.00
8424;DHT22;4249;49.072;9.770;2022-07-23T03:22:24;22.50;1.00
8424;DHT22;4249;49.072;9.770;2022-07-23T03:25:11;22.50;1.00
8424;DHT22;4249;49.072;9.770;2022-07-23T03:27:59;22.40;1.00
8424;DHT22;4249;49.072;9.770;2022-07-23T03:30:46;22.40;1.00
8424;DHT22;4249;49.072;9.770;2022-07-23T03:33:34;22.30;1.00
8424;DHT22;4249;49.072;9.770;2022-07-23T03:36:22;22.30;1.00
8424;DHT22;4249;49.072;9.770;2022-07-23T03:39:11;22.30;1.00
8424;DHT22;4249;49.072;9.770;2022-07-23T03:41:59;22.30;1.00
8424;DHT22;4249;49.072;9.770;2022-07-23T03:44:46;22.40;1.00
8424;DHT22;4249;49.072;9.770;2022-07-23T03:47:33;22.30;1.00
8424;DHT22;4249;49.072;9.770;2022-07-23T03:50:20;22.30;1.00
8424;DHT22;4249;49.072;9.770;2022-07-23T03:53:08;22.30;1.00
8424;DHT22;4249;49.072;9.770;2022-07-23T03:55:56;22.20;1.00
8424;DHT22;4249;49.072;9.770;2022-07-23T03:58:43;22.20;1.00
8424;DHT22;4249;49.072;9.770;2022-07-23T04:01:31;22.20;1.00
8424;DHT22;4249;49.072;9.770;2022-07-23T04:04:18;22.20;1.00
8424;DHT22;4249;49.072;9.770;2022-07-23T04:07:05;22.10;1.00
8424;DHT22;4249;49.072;9.770;2022-07-23T04:09:53;22.10;1.00
8424;DHT22;4249;49.072;9.770;2022-07-23T04:12:42;22.10;1.00
8424;DHT22;4249;49.072;9.770;2022-07-23T04:15:29;22.10;1.00
8424;DHT22;4249;49.072;9.770;2022-07-23T04:18:16;22.10;1.00
8424;DHT22;4249;49.072;9.770;2022-07-23T04:21:04;22.20;1.00
8424;DHT22;4249;49.072;9.770;2022-07-23T04:23:51;22.20;1.00
8424;DHT22;4249;49.072;9.770;2022-07-23T04:26:38;22.20;1.00
8424;DHT22;4249;49.072;9.770;2022-07-23T04:29:27;22.20;1.00
8424;DHT22;4249;49.072;9.770;2022-07-23T04:32:14;22.30;1.00
8424;DHT22;4249;49.072;9.770;2022-07-23T04:35:01;22.40;1.00
8424;DHT22;4249;49.072;9.770;2022-07-23T04:37:49;22.50;1.00
8424;DHT22;4249;49.072;9.770;2022-07-23T04:40:36;22.50;1.00
8424;DHT22;4249;49.072;9.770;2022-07-23T04:43:24;22.50;1.00
8424;DHT22;4249;49.072;9.770;2022-07-23T04:46:13;22.60;1.00
8424;DHT22;4249;49.072;9.770;2022-07-23T04:49:00;22.50;1.00
8424;DHT22;4249;49.072;9.770;2022-07-23T04:51:47;22.60;1.00
8424;DHT22;4249;49.072;9.770;2022-07-23T04:54:34;22.60;1.00
8424;DHT22;4249;49.072;9.770;2022-07-23T04:57:22;22.70;1.00
8424;DHT22;4249;49.072;9.770;2022-07-23T05:00:10;22.80;1.00
8424;DHT22;4249;49.072;9.770;2022-07-23T05:02:58;22.90;1.00
8424;DHT22;4249;49.072;9.770;2022-07-23T05:05:45;22.90;1.00
8424;DHT22;4249;49.072;9.770;2022-07-23T05:08:33;22.90;1.00
8424;DHT22;4249;49.072;9.770;2022-07-23T05:11:20;22.90;1.00
8424;DHT22;4249;49.072;9.770;2022-07-23T05:14:07;23.00;1.00
8424;DHT22;4249;49.072;9.770;2022-07-23T05:16:54;23.00;1.00
8424;DHT22;4249;49.072;9.770;2022-07-23T05:19:43;22.90;1.00
8424;DHT22;4249;49.072;9.770;2022-07-23T05:22:30;23.00;1.00
8424;DHT22;4249;49.072;9.770;2022-07-23T05:25:18;23.20;1.00
8424;DHT22;4249;49.072;9.770;2022-07-23T05:28:05;23.40;1.00
8424;DHT22;4249;49.072;9.770;2022-07-23T05:30:52;23.60;1.00
8424;DHT22;4249;49.072;9.770;2022-07-23T05:33:39;23.70;1.00
8424;DHT22;4249;49.072;9.770;2022-07-23T05:36:28;23.80;1.00
8424;DHT22;4249;49.072;9.770;2022-07-23T05:39:15;23.90;1.00
8424;DHT22;4249;49.072;9.770;2022-07-23T05:42:03;24.20;1.00
8424;DHT22;4249;49.072;9.770;2022-07-23T05:44:50;24.50;1.00
8424;DHT22;4249;49.072;9.770;2022-07-23T05:47:42;24.80;1.00
8424;DHT22;4249;49.072;9.770;2022-07-23T05:50:30;25.00;1.00
8424;DHT22;4249;49.072;9.770;2022-07-23T05:53:19;25.00;1.00
8424;DHT22;4249;49.072;9.770;2022-07-23T05:56:06;25.10;1.00
8424;DHT22;4249;49.072;9.770;2022-07-23T05:58:54;25.10;1.00
8424;DHT22;4249;49.072;9.770;2022-07-23T06:01:41;25.20;1.00
8424;DHT22;4249;49.072;9.770;2022-07-23T06:04:28;25.00;1.00
8424;DHT22;4249;49.072;9.770;2022-07-23T06:07:15;24.90;1.00
8424;DHT22;4249;49.072;9.770;2022-07-23T06:10:04;24.80;1.00
8424;DHT22;4249;49.072;9.770;2022-07-23T06:12:52;24.80;1.00
8424;DHT22;4249;49.072;9.770;2022-07-23T06:15:39;24.80;1.00
8424;DHT22;4249;49.072;9.770;2022-07-23T06:18:26;24.90;1.00
8424;DHT22;4249;49.072;9.770;2022-07-23T06:21:14;24.90;1.00
8424;DHT22;4249;49.072;9.770;2022-07-23T06:24:01;24.70;1.00
8424;DHT22;4249;49.072;9.770;2022-07-23T06:26:49;24.50;1.00
8424;DHT22;4249;49.072;9.770;2022-07-23T06:29:37;24.30;1.00
8424;DHT22;4249;49.072;9.770;2022-07-23T06:32:26;24.20;1.00
8424;DHT22;4249;49.072;9.770;2022-07-23T06:35:13;24.20;1.00
8424;DHT22;4249;49.072;9.770;2022-07-23T06:38:01;24.20;1.00
8424;DHT22;4249;49.072;9.770;2022-07-23T06:40:48;24.30;1.00
8424;DHT22;4249;49.072;9.770;2022-07-23T06:43:36;24.80;1.00
8424;DHT22;4249;49.072;9.770;2022-07-23T06:46:24;24.80;1.00
8424;DHT22;4249;49.072;9.770;2022-07-23T06:49:11;24.50;1.00
8424;DHT22;4249;49.072;9.770;2022-07-23T06:51:58;24.20;1.00
8424;DHT22;4249;49.072;9.770;2022-07-23T06:54:45;23.90;1.00
8424;DHT22;4249;49.072;9.770;2022-07-23T06:57:32;24.50;1.00
8424;DHT22;4249;49.072;9.770;2022-07-23T07:00:21;25.80;1.00
8424;DHT22;4249;49.072;9.770;2022-07-23T07:03:08;25.90;1.00
8424;DHT22;4249;49.072;9.770;2022-07-23T07:05:55;25.50;1.00
8424;DHT22;4249;49.072;9.770;2022-07-23T07:08:43;25.20;1.00
8424;DHT22;4249;49.072;9.770;2022-07-23T07:11:30;24.90;1.00
8424;DHT22;4249;49.072;9.770;2022-07-23T07:14:17;24.60;1.00
8424;DHT22;4249;49.072;9.770;2022-07-23T07:17:06;24.40;1.00
8424;DHT22;4249;49.072;9.770;2022-07-23T07:19:53;24.30;1.00
8424;DHT22;4249;49.072;9.770;2022-07-23T07:22:40;24.10;1.00
8424;DHT22;4249;49.072;9.770;2022-07-23T07:25:28;24.20;1.00
8424;DHT22;4249;49.072;9.770;2022-07-23T07:28:16;24.60;1.00
8424;DHT22;4249;49.072;9.770;2022-07-23T07:31:03;25.00;1.00
8424;DHT22;4249;49.072;9.770;2022-07-23T07:33:51;25.10;1.00
8424;DHT22;4249;49.072;9.770;2022-07-23T07:36:39;25.00;1.00
8424;DHT22;4249;49.072;9.770;2022-07-23T07:39:26;24.70;1.00
8424;DHT22;4249;49.072;9.770;2022-07-23T07:42:13;24.40;1.00
8424;DHT22;4249;49.072;9.770;2022-07-23T07:45:00;24.00;1.00
8424;DHT22;4249;49.072;9.770;2022-07-23T07:47:47;23.70;1.00
8424;DHT22;4249;49.072;9.770;2022-07-23T07:50:36;23.40;1.00
8424;DHT22;4249;49.072;9.770;2022-07-23T07:53:23;23.10;99.90
8424;DHT22;4249;49.072;9.770;2022-07-23T07:56:10;22.60;99.90
8424;DHT22;4249;49.072;9.770;2022-07-23T07:58:58;22.30;1.00
8424;DHT22;4249;49.072;9.770;2022-07-23T08:01:46;22.20;1.00
8424;DHT22;4249;49.072;9.770;2022-07-23T08:04:33;22.00;99.90
8424;DHT22;4249;49.072;9.770;2022-07-23T08:07:22;21.90;1.00
8424;DHT22;4249;49.072;9.770;2022-07-23T08:10:09;21.90;1.00
8424;DHT22;4249;49.072;9.770;2022-07-23T08:12:58;21.80;10.00
8424;DHT22;4249;49.072;9.770;2022-07-23T08:15:46;21.70;1.00
8424;DHT22;4249;49.072;9.770;2022-07-23T08:18:34;21.60;1.00
8424;DHT22;4249;49.072;9.770;2022-07-23T08:21:21;21.60;1.00
8424;DHT22;4249;49.072;9.770;2022-07-23T08:24:10;21.60;1.00
8424;DHT22;4249;49.072;9.770;2022-07-23T08:26:57;21.50;99.90
8424;DHT22;4249;49.072;9.770;2022-07-23T08:29:44;21.40;1.00
8424;DHT22;4249;49.072;9.770;2022-07-23T08:32:31;21.50;1.00
8424;DHT22;4249;49.072;9.770;2022-07-23T08:35:22;21.60;1.00
8424;DHT22;4249;49.072;9.770;2022-07-23T08:38:10;21.80;1.00
8424;DHT22;4249;49.072;9.770;2022-07-23T08:40:59;22.10;27.90
8424;DHT22;4249;49.072;9.770;2022-07-23T08:43:46;22.40;1.00
8424;DHT22;4249;49.072;9.770;2022-07-23T08:46:34;22.50;1.00
8424;DHT22;4249;49.072;9.770;2022-07-23T08:49:22;22.80;99.90
8424;DHT22;4249;49.072;9.770;2022-07-23T08:52:09;23.00;61.70
8424;DHT22;4249;49.072;9.770;2022-07-23T08:54:57;23.50;71.50
8424;DHT22;4249;49.072;9.770;2022-07-23T08:57:48;24.20;99.90
8424;DHT22;4249;49.072;9.770;2022-07-23T09:00:35;24.80;86.10
8424;DHT22;4249;49.072;9.770;2022-07-23T09:03:25;25.10;1.00
8424;DHT22;4249;49.072;9.770;2022-07-23T09:06:12;25.30;1.00
8424;DHT22;4249;49.072;9.770;2022-07-23T09:09:16;25.50;1.00
8424;DHT22;4249;49.072;9.770;2022-07-23T09:12:05;25.50;1.00
8424;DHT22;4249;49.072;9.770;2022-07-23T09:14:54;25.60;1.00
8424;DHT22;4249;49.072;9.770;2022-07-23T09:17:42;25.50;1.00
8424;DHT22;4249;49.072;9.770;2022-07-23T09:20:29;25.30;1.00
8424;DHT22;4249;49.072;9.770;2022-07-23T09:23:17;25.00;1.00
8424;DHT22;4249;49.072;9.770;2022-07-23T09:26:17;24.90;1.00
8424;DHT22;4249;49.072;9.770;2022-07-23T09:29:10;24.70;1.00
8424;DHT22;4249;49.072;9.770;2022-07-23T09:32:00;24.50;1.00
8424;DHT22;4249;49.072;9.770;2022-07-23T09:34:49;24.30;1.00
8424;DHT22;4249;49.072;9.770;2022-07-23T09:37:36;24.20;1.00
8424;DHT22;4249;49.072;9.770;2022-07-23T09:40:23;24.20;1.00
8424;DHT22;4249;49.072;9.770;2022-07-23T09:43:11;24.20;28.30
8424;DHT22;4249;49.072;9.770;2022-07-23T09:46:16;24.40;1.00
8424;DHT22;4249;49.072;9.770;2022-07-23T09:49:13;24.80;99.90
8424;DHT22;4249;49.072;9.770;2022-07-23T09:52:00;25.00;99.90
8424;DHT22;4249;49.072;9.770;2022-07-23T09:54:57;25.30;99.90
8424;DHT22;4249;49.072;9.770;2022-07-23T09:57:46;25.60;90.20
8424;DHT22;4249;49.072;9.770;2022-07-23T10:00:35;25.70;1.00
8424;DHT22;4249;49.072;9.770;2022-07-23T10:03:23;25.70;1.00
8424;DHT22;4249;49.072;9.770;2022-07-23T10:06:13;25.80;1.00
8424;DHT22;4249;49.072;9.770;2022-07-23T10:09:01;26.10;1.00
8424;DHT22;4249;49.072;9.770;2022-07-23T10:11:49;26.20;1.00
8424;DHT22;4249;49.072;9.770;2022-07-23T10:14:38;26.30;1.00
8424;DHT22;4249;49.072;9.770;2022-07-23T10:17:27;26.40;1.00
8424;DHT22;4249;49.072;9.770;2022-07-23T10:20:14;26.60;1.00
8424;DHT22;4249;49.072;9.770;2022-07-23T10:23:12;26.80;1.00
8424;DHT22;4249;49.072;9.770;2022-07-23T10:26:09;26.80;1.00
8424;DHT22;4249;49.072;9.770;2022-07-23T10:29:06;26.60;1.00
8424;DHT22;4249;49.072;9.770;2022-07-23T10:32:00;26.50;1.00
8424;DHT22;4249;49.072;9.770;2022-07-23T10:34:54;26.20;1.00
8424;DHT22;4249;49.072;9.770;2022-07-23T10:37:45;26.30;1.00
8424;DHT22;4249;49.072;9.770;2022-07-23T10:40:36;26.60;1.00
8424;DHT22;4249;49.072;9.770;2022-07-23T10:43:23;26.70;1.00
8424;DHT22;4249;49.072;9.770;2022-07-23T10:46:28;27.00;1.00
8424;DHT22;4249;49.072;9.770;2022-07-23T10:49:26;27.20;1.00
8424;DHT22;4249;49.072;9.770;2022-07-23T10:52:22;27.30;1.00
8424;DHT22;4249;49.072;9.770;2022-07-23T10:58:48;28.00;1.00
8424;DHT22;4249;49.072;9.770;2022-07-23T11:01:37;27.80;1.00
8424;DHT22;4249;49.072;9.770;2022-07-23T11:04:49;27.90;1.00
8424;DHT22;4249;49.072;9.770;2022-07-23T11:10:42;28.10;1.00
8424;DHT22;4249;49.072;9.770;2022-07-23T11:13:32;28.20;1.00
8424;DHT22;4249;49.072;9.770;2022-07-23T11:16:24;28.30;1.00
8424;DHT22;4249;49.072;9.770;2022-07-23T11:19:12;28.00;1.00
8424;DHT22;4249;49.072;9.770;2022-07-23T11:21:59;28.10;1.00
8424;DHT22;4249;49.072;9.770;2022-07-23T11:24:50;28.10;1.00
8424;DHT22;4249;49.072;9.770;2022-07-23T11:27:38;28.20;1.00
8424;DHT22;4249;49.072;9.770;2022-07-23T11:30:40;28.40;1.00
8424;DHT22;4249;49.072;9.770;2022-07-23T11:33:29;28.60;1.00
8424;DHT22;4249;49.072;9.770;2022-07-23T11:36:17;28.70;1.00
8424;DHT22;4249;49.072;9.770;2022-07-23T11:39:06;28.70;1.00
8424;DHT22;4249;49.072;9.770;2022-07-23T11:41:54;28.60;1.00
8424;DHT22;4249;49.072;9.770;2022-07-23T11:44:46;28.40;1.00
8424;DHT22;4249;49.072;9.770;2022-07-23T11:47:34;28.30;1.00
8424;DHT22;4249;49.072;9.770;2022-07-23T11:50:24;28.20;1.00
8424;DHT22;4249;49.072;9.770;2022-07-23T11:53:12;28.30;1.00
8424;DHT22;4249;49.072;9.770;2022-07-23T11:56:04;28.40;1.00
8424;DHT22;4249;49.072;9.770;2022-07-23T11:58:55;28.50;1.00
8424;DHT22;4249;49.072;9.770;2022-07-23T12:01:56;28.60;1.00
8424;DHT22;4249;49.072;9.770;2022-07-23T12:04:45;28.90;1.00
8424;DHT22;4249;49.072;9.770;2022-07-23T12:07:36;28.90;1.00
8424;DHT22;4249;49.072;9.770;2022-07-23T12:10:25;29.00;1.00
8424;DHT22;4249;49.072;9.770;2022-07-23T12:13:13;29.10;1.00
8424;DHT22;4249;49.072;9.770;2022-07-23T12:16:01;29.30;1.00
8424;DHT22;4249;49.072;9.770;2022-07-23T12:18:50;29.50;1.00
8424;DHT22;4249;49.072;9.770;2022-07-23T12:21:37;29.60;1.00
8424;DHT22;4249;49.072;9.770;2022-07-23T12:24:26;29.50;1.00
8424;DHT22;4249;49.072;9.770;2022-07-23T12:27:13;29.50;1.00
8424;DHT22;4249;49.072;9.770;2022-07-23T12:30:15;29.80;1.00
8424;DHT22;4249;49.072;9.770;2022-07-23T12:33:03;29.90;1.00
8424;DHT22;4249;49.072;9.770;2022-07-23T12:35:53;29.70;1.00
8424;DHT22;4249;49.072;9.770;2022-07-23T12:38:42;29.60;1.00
8424;DHT22;4249;49.072;9.770;2022-07-23T12:41:52;29.50;1.00
8424;DHT22;4249;49.072;9.770;2022-07-23T12:44:39;29.50;1.00
8424;DHT22;4249;49.072;9.770;2022-07-23T12:47:26;29.50;1.00
8424;DHT22;4249;49.072;9.770;2022-07-23T12:50:32;29.50;1.00
8424;DHT22;4249;49.072;9.770;2022-07-23T12:53:21;29.40;1.00
8424;DHT22;4249;49.072;9.770;2022-07-23T12:56:10;29.30;1.00
8424;DHT22;4249;49.072;9.770;2022-07-23T12:59:05;29.10;1.00
8424;DHT22;4249;49.072;9.770;2022-07-23T13:01:54;29.20;1.00
8424;DHT22;4249;49.072;9.770;2022-07-23T13:04:44;29.30;1.00
8424;DHT22;4249;49.072;9.770;2022-07-23T13:07:31;29.30;1.00
8424;DHT22;4249;49.072;9.770;2022-07-23T13:10:19;29.30;1.00
8424;DHT22;4249;49.072;9.770;2022-07-23T13:13:10;29.30;1.00
8424;DHT22;4249;49.072;9.770;2022-07-23T13:16:02;29.30;1.00
8424;DHT22;4249;49.072;9.770;2022-07-23T13:18:50;29.30;1.00
8424;DHT22;4249;49.072;9.770;2022-07-23T13:21:37;29.50;1.00
8424;DHT22;4249;49.072;9.770;2022-07-23T13:24:24;29.60;1.00
8424;DHT22;4249;49.072;9.770;2022-07-23T13:27:11;29.60;1.00
8424;DHT22;4249;49.072;9.770;2022-07-23T13:29:59;29.70;1.00
8424;DHT22;4249;49.072;9.770;2022-07-23T13:32:48;29.80;1.00
8424;DHT22;4249;49.072;9.770;2022-07-23T13:35:37;29.80;1.00
8424;DHT22;4249;49.072;9.770;2022-07-23T13:38:25;29.70;1.00
8424;DHT22;4249;49.072;9.770;2022-07-23T13:41:12;29.70;1.00
8424;DHT22;4249;49.072;9.770;2022-07-23T13:44:02;29.50;1.00
8424;DHT22;4249;49.072;9.770;2022-07-23T13:46:49;29.40;1.00
8424;DHT22;4249;49.072;9.770;2022-07-23T13:49:38;29.20;1.00
8424;DHT22;4249;49.072;9.770;2022-07-23T13:52:25;29.20;1.00
8424;DHT22;4249;49.072;9.770;2022-07-23T13:55:13;29.10;1.00
8424;DHT22;4249;49.072;9.770;2022-07-23T13:58:00;29.30;1.00
8424;DHT22;4249;49.072;9.770;2022-07-23T14:00:50;29.60;1.00
8424;DHT22;4249;49.072;9.770;2022-07-23T14:03:38;29.70;1.00
8424;DHT22;4249;49.072;9.770;2022-07-23T14:06:27;29.90;1.00
8424;DHT22;4249;49.072;9.770;2022-07-23T14:09:14;29.90;1.00
8424;DHT22;4249;49.072;9.770;2022-07-23T14:12:02;30.00;1.00
8424;DHT22;4249;49.072;9.770;2022-07-23T14:14:49;29.90;1.00
8424;DHT22;4249;49.072;9.770;2022-07-23T14:17:36;30.00;1.00
8424;DHT22;4249;49.072;9.770;2022-07-23T14:20:24;29.70;1.00
8424;DHT22;4249;49.072;9.770;2022-07-23T14:23:12;29.60;1.00
8424;DHT22;4249;49.072;9.770;2022-07-23T14:26:00;29.70;1.00
8424;DHT22;4249;49.072;9.770;2022-07-23T14:28:47;29.90;1.00
8424;DHT22;4249;49.072;9.770;2022-07-23T14:31:34;29.90;1.00
8424;DHT22;4249;49.072;9.770;2022-07-23T14:34:22;29.70;1.00
8424;DHT22;4249;49.072;9.770;2022-07-23T14:37:09;29.50;1.00
8424;DHT22;4249;49.072;9.770;2022-07-23T14:39:59;29.50;1.00
8424;DHT22;4249;49.072;9.770;2022-07-23T14:42:46;29.60;1.00
8424;DHT22;4249;49.072;9.770;2022-07-23T14:45:34;29.50;1.00
8424;DHT22;4249;49.072;9.770;2022-07-23T14:48:22;29.50;1.00
8424;DHT22;4249;49.072;9.770;2022-07-23T14:51:09;29.50;1.00
8424;DHT22;4249;49.072;9.770;2022-07-23T14:53:56;29.40;1.00
8424;DHT22;4249;49.072;9.770;2022-07-23T14:56:45;29.30;1.00
8424;DHT22;4249;49.072;9.770;2022-07-23T14:59:32;29.40;1.00
8424;DHT22;4249;49.072;9.770;2022-07-23T15:02:20;29.40;1.00
8424;DHT22;4249;49.072;9.770;2022-07-23T15:05:07;29.40;1.00
8424;DHT22;4249;49.072;9.770;2022-07-23T15:07:55;29.40;1.00
8424;DHT22;4249;49.072;9.770;2022-07-23T15:10:42;29.10;1.00
8424;DHT22;4249;49.072;9.770;2022-07-23T15:13:30;29.30;1.00
8424;DHT22;4249;49.072;9.770;2022-07-23T15:16:18;29.10;1.00
8424;DHT22;4249;49.072;9.770;2022-07-23T15:19:05;29.00;1.00
8424;DHT22;4249;49.072;9.770;2022-07-23T15:21:52;29.10;1.00
8424;DHT22;4249;49.072;9.770;2022-07-23T15:24:39;29.30;1.00
8424;DHT22;4249;49.072;9.770;2022-07-23T15:27:27;29.20;1.00
8424;DHT22;4249;49.072;9.770;2022-07-23T15:30:16;29.10;1.00
8424;DHT22;4249;49.072;9.770;2022-07-23T15:33:03;29.00;1.00
8424;DHT22;4249;49.072;9.770;2022-07-23T15:35:50;28.90;1.00
8424;DHT22;4249;49.072;9.770;2022-07-23T15:38:38;28.90;1.00
8424;DHT22;4249;49.072;9.770;2022-07-23T15:41:26;28.90;1.00
8424;DHT22;4249;49.072;9.770;2022-07-23T15:44:14;28.90;1.00
8424;DHT22;4249;49.072;9.770;2022-07-23T15:47:02;29.00;1.00
8424;DHT22;4249;49.072;9.770;2022-07-23T15:49:50;29.20;1.00
8424;DHT22;4249;49.072;9.770;2022-07-23T15:52:37;29.30;1.00
8424;DHT22;4249;49.072;9.770;2022-07-23T15:55:24;29.40;1.00
8424;DHT22;4249;49.072;9.770;2022-07-23T15:58:12;29.40;1.00
8424;DHT22;4249;49.072;9.770;2022-07-23T16:01:00;29.50;1.00
8424;DHT22;4249;49.072;9.770;2022-07-23T16:03:50;29.40;1.00
8424;DHT22;4249;49.072;9.770;2022-07-23T16:06:37;29.30;1.00
8424;DHT22;4249;49.072;9.770;2022-07-23T16:09:26;29.30;1.00
8424;DHT22;4249;49.072;9.770;2022-07-23T16:12:13;29.10;1.00
8424;DHT22;4249;49.072;9.770;2022-07-23T16:15:01;29.00;1.00
8424;DHT22;4249;49.072;9.770;2022-07-23T16:17:48;29.00;1.00
8424;DHT22;4249;49.072;9.770;2022-07-23T16:20:37;29.00;1.00
8424;DHT22;4249;49.072;9.770;2022-07-23T16:23:25;29.00;1.00
8424;DHT22;4249;49.072;9.770;2022-07-23T16:26:12;29.00;1.00
8424;DHT22;4249;49.072;9.770;2022-07-23T16:29:01;29.10;1.00
8424;DHT22;4249;49.072;9.770;2022-07-23T16:31:48;29.30;1.00
8424;DHT22;4249;49.072;9.770;2022-07-23T16:34:35;29.40;1.00
8424;DHT22;4249;49.072;9.770;2022-07-23T16:37:24;29.40;1.00
8424;DHT22;4249;49.072;9.770;2022-07-23T16:40:12;29.10;1.00
8424;DHT22;4249;49.072;9.770;2022-07-23T16:42:59;29.00;1.00
8424;DHT22;4249;49.072;9.770;2022-07-23T16:45:47;29.00;1.00
8424;DHT22;4249;49.072;9.770;2022-07-23T16:48:34;28.90;1.00
8424;DHT22;4249;49.072;9.770;2022-07-23T16:51:22;28.80;1.00
8424;DHT22;4249;49.072;9.770;2022-07-23T16:54:11;28.60;1.00
8424;DHT22;4249;49.072;9.770;2022-07-23T16:56:58;28.50;1.00
8424;DHT22;4249;49.072;9.770;2022-07-23T16:59:45;28.30;1.00
8424;DHT22;4249;49.072;9.770;2022-07-23T17:02:33;28.10;1.00
8424;DHT22;4249;49.072;9.770;2022-07-23T17:05:20;28.10;1.00
8424;DHT22;4249;49.072;9.770;2022-07-23T17:08:07;27.90;1.00
8424;DHT22;4249;49.072;9.770;2022-07-23T17:10:56;27.80;1.00
8424;DHT22;4249;49.072;9.770;2022-07-23T17:13:43;27.80;1.00
8424;DHT22;4249;49.072;9.770;2022-07-23T17:16:30;27.80;1.00
8424;DHT22;4249;49.072;9.770;2022-07-23T17:19:18;27.70;1.00
8424;DHT22;4249;49.072;9.770;2022-07-23T17:22:05;27.60;1.00
8424;DHT22;4249;49.072;9.770;2022-07-23T17:24:53;27.60;1.00
8424;DHT22;4249;49.072;9.770;2022-07-23T17:27:42;27.50;1.00
8424;DHT22;4249;49.072;9.770;2022-07-23T17:30:29;27.40;1.00
8424;DHT22;4249;49.072;9.770;2022-07-23T17:33:16;27.40;1.00
8424;DHT22;4249;49.072;9.770;2022-07-23T17:36:05;27.30;1.00
8424;DHT22;4249;49.072;9.770;2022-07-23T17:38:52;27.30;1.00
8424;DHT22;4249;49.072;9.770;2022-07-23T17:41:40;27.10;1.00
8424;DHT22;4249;49.072;9.770;2022-07-23T17:44:34;27.00;1.00
8424;DHT22;4249;49.072;9.770;2022-07-23T17:47:21;26.80;1.00
8424;DHT22;4249;49.072;9.770;2022-07-23T17:50:09;26.80;1.00
8424;DHT22;4249;49.072;9.770;2022-07-23T17:52:56;26.70;1.00
8424;DHT22;4249;49.072;9.770;2022-07-23T17:55:43;26.70;1.00
8424;DHT22;4249;49.072;9.770;2022-07-23T17:58:31;26.60;1.00
8424;DHT22;4249;49.072;9.770;2022-07-23T18:01:20;26.50;1.00
8424;DHT22;4249;49.072;9.770;2022-07-23T18:04:08;26.30;1.00
8424;DHT22;4249;49.072;9.770;2022-07-23T18:06:56;26.20;1.00
8424;DHT22;4249;49.072;9.770;2022-07-23T18:09:43;26.00;1.00
8424;DHT22;4249;49.072;9.770;2022-07-23T18:12:31;25.80;1.00
8424;DHT22;4249;49.072;9.770;2022-07-23T18:15:18;25.70;1.00
8424;DHT22;4249;49.072;9.770;2022-07-23T18:18:06;25.50;1.00
8424;DHT22;4249;49.072;9.770;2022-07-23T18:20:54;25.40;1.00
8424;DHT22;4249;49.072;9.770;2022-07-23T18:23:42;25.30;1.00
8424;DHT22;4249;49.072;9.770;2022-07-23T18:26:29;25.10;1.00
8424;DHT22;4249;49.072;9.770;2022-07-23T18:29:16;25.00;1.00
8424;DHT22;4249;49.072;9.770;2022-07-23T18:32:04;24.80;1.00
8424;DHT22;4249;49.072;9.770;2022-07-23T18:34:53;24.70;1.00
8424;DHT22;4249;49.072;9.770;2022-07-23T18:37:41;24.60;1.00
8424;DHT22;4249;49.072;9.770;2022-07-23T18:40:28;24.50;1.00
8424;DHT22;4249;49.072;9.770;2022-07-23T18:43:16;24.50;1.00